Time;durP1;ratioP1;P1;durP2;ratioP2;P2;SDS_P1;SDS_P2;PMS_P1;PMS_P2;Temp;Humidity;BMP_temperature;BMP_pressure;BME280_temperature;BME280_humidity;BME280_pressure;Samples;Min_cycle;Max_cycle;Signal;HPM_P1;HPM_P2
2023/01/07 00:02:15;;;;;;;16.80;11.57;;;9.80;99.90;;;;;;5031056;28;20075;-68
2023/01/07 00:04:41;;;;;;;18.05;11.85;;;9.90;99.90;;;;;;5029939;28;20041;-68
2023/01/07 00:07:06;;;;;;;18.92;11.60;;;9.90;99.90;;;;;;5029497;28;20518;-67
2023/01/07 00:09:32;;;;;;;17.05;11.70;;;9.90;99.90;;;;;;5030526;28;20541;-68
2023/01/07 00:11:57;;;;;;;18.85;11.10;;;9.90;99.90;;;;;;5034944;28;20491;-68
2023/01/07 00:14:23;;;;;;;17.90;11.82;;;9.90;99.90;;;;;;5034011;28;20208;-68
2023/01/07 00:16:49;;;;;;;19.20;11.77;;;10.00;99.90;;;;;;5034818;28;20371;-68
2023/01/07 00:19:15;;;;;;;18.33;11.85;;;10.00;99.90;;;;;;5034471;28;20490;-68
2023/01/07 00:21:41;;;;;;;17.40;11.55;;;10.00;99.90;;;;;;5034670;28;20041;-68
2023/01/07 00:24:09;;;;;;;19.10;11.82;;;10.00;99.90;;;;;;5042074;28;20122;-68
2023/01/07 00:26:36;;;;;;;20.05;11.48;;;10.00;99.90;;;;;;5054328;28;20036;-68
2023/01/07 00:29:03;;;;;;;18.75;11.45;;;10.00;99.90;;;;;;5054335;28;20494;-68
2023/01/07 00:31:34;;;;;;;19.65;12.65;;;10.10;99.90;;;;;;5036292;28;20055;-68
2023/01/07 00:36:31;;;;;;;17.67;11.48;;;10.10;99.90;;;;;;5054242;28;20041;-68
2023/01/07 00:39:01;;;;;;;20.75;12.98;;;10.10;99.90;;;;;;5053083;28;20375;-68
2023/01/07 00:41:27;;;;;;;21.55;13.63;;;10.10;99.90;;;;;;5054312;28;20044;-68
2023/01/07 00:43:53;;;;;;;19.08;12.68;;;10.10;99.90;;;;;;5053455;28;20045;-68
2023/01/07 00:46:19;;;;;;;21.40;13.18;;;10.10;99.90;;;;;;5054256;28;20052;-68
2023/01/07 00:48:45;;;;;;;21.55;13.10;;;10.10;99.90;;;;;;5052840;28;20469;-68
2023/01/07 00:51:13;;;;;;;22.85;13.75;;;10.20;99.90;;;;;;5054287;28;20037;-68
2023/01/07 00:53:38;;;;;;;21.02;13.13;;;10.10;99.90;;;;;;5053876;28;20041;-68
2023/01/07 00:56:04;;;;;;;20.63;13.45;;;10.20;99.90;;;;;;5052211;28;20380;-68
2023/01/07 00:58:30;;;;;;;20.80;13.32;;;10.10;99.90;;;;;;5047327;28;20086;-68
2023/01/07 01:01:00;;;;;;;22.75;14.23;;;10.20;99.90;;;;;;5033004;28;20044;-68
2023/01/07 01:03:27;;;;;;;25.58;15.00;;;10.20;99.90;;;;;;5033687;28;20057;-68
2023/01/07 01:05:53;;;;;;;21.13;13.73;;;10.20;99.90;;;;;;5033334;28;20091;-68
2023/01/07 01:08:20;;;;;;;22.30;13.00;;;10.20;99.90;;;;;;5053564;28;20572;-68
2023/01/07 01:10:45;;;;;;;24.77;14.38;;;10.20;99.90;;;;;;5053858;28;20124;-68
2023/01/07 01:13:13;;;;;;;21.08;13.77;;;10.20;99.90;;;;;;5052103;28;20128;-68
2023/01/07 01:15:47;;;;;;;22.85;13.80;;;10.20;99.90;;;;;;5052971;28;20041;-68
2023/01/07 01:18:14;;;;;;;22.10;13.48;;;10.20;99.90;;;;;;5053836;28;20040;-68
2023/01/07 01:20:39;;;;;;;24.23;14.10;;;10.20;99.90;;;;;;5051605;28;20054;-68
2023/01/07 01:23:06;;;;;;;24.00;13.57;;;10.20;99.90;;;;;;5053359;28;20041;-68
2023/01/07 01:25:32;;;;;;;22.65;14.73;;;10.30;99.90;;;;;;5051272;28;20073;-68
2023/01/07 01:27:58;;;;;;;24.95;13.48;;;10.30;99.90;;;;;;5053232;28;20489;-68
2023/01/07 01:30:24;;;;;;;21.58;12.98;;;10.30;99.90;;;;;;5053316;28;20049;-68
2023/01/07 01:32:49;;;;;;;23.50;15.05;;;10.30;99.90;;;;;;5051931;28;20417;-68
2023/01/07 01:35:15;;;;;;;21.15;14.00;;;10.30;99.90;;;;;;5052285;28;20521;-68
2023/01/07 01:37:41;;;;;;;21.25;13.48;;;10.30;99.90;;;;;;5052150;28;20037;-68
2023/01/07 01:40:07;;;;;;;26.90;14.57;;;10.30;99.90;;;;;;5051841;28;20139;-68
2023/01/07 01:42:33;;;;;;;21.95;13.85;;;10.30;99.90;;;;;;5051679;28;20053;-68
2023/01/07 01:45:00;;;;;;;21.77;13.73;;;10.30;99.90;;;;;;5052545;28;20489;-68
2023/01/07 01:47:39;;;;;;;22.70;14.05;;;10.30;99.90;;;;;;5052921;28;20087;-68
2023/01/07 01:50:33;;;;;;;20.90;14.38;;;10.30;99.90;;;;;;5053205;28;20405;-68
2023/01/07 01:53:23;;;;;;;21.23;13.70;;;10.30;99.90;;;;;;5051453;28;20049;-68
2023/01/07 01:55:57;;;;;;;20.02;13.25;;;10.30;99.90;;;;;;5052328;28;20048;-68
2023/01/07 01:58:42;;;;;;;20.80;13.02;;;10.30;99.90;;;;;;5052815;28;20041;-68
2023/01/07 02:01:08;;;;;;;20.80;13.35;;;10.30;99.90;;;;;;5052909;28;20037;-68
2023/01/07 02:03:36;;;;;;;22.80;13.63;;;10.30;99.90;;;;;;5052588;28;20094;-68
2023/01/07 02:06:02;;;;;;;22.50;13.75;;;10.30;99.90;;;;;;5051808;28;20044;-68
2023/01/07 02:08:28;;;;;;;24.52;12.90;;;10.30;99.90;;;;;;5052391;28;20036;-68
2023/01/07 02:11:16;;;;;;;23.33;13.75;;;10.30;99.90;;;;;;5052682;28;20126;-68
2023/01/07 02:14:06;;;;;;;18.70;12.18;;;10.30;99.90;;;;;;5032113;28;20053;-68
2023/01/07 02:17:00;;;;;;;19.85;12.23;;;10.30;99.90;;;;;;5032561;28;20034;-68
2023/01/07 02:20:12;;;;;;;21.80;12.70;;;10.30;99.90;;;;;;5032509;28;20120;-68
2023/01/07 02:23:07;;;;;;;22.77;12.73;;;10.30;99.90;;;;;;5032377;28;20037;-68
2023/01/07 02:25:51;;;;;;;22.70;12.75;;;10.30;99.90;;;;;;5031771;28;20042;-68
2023/01/07 02:28:48;;;;;;;21.70;13.02;;;10.30;99.90;;;;;;5032493;28;20414;-68
2023/01/07 02:31:34;;;;;;;20.33;13.00;;;10.30;99.90;;;;;;5032385;28;20437;-68
2023/01/07 02:34:13;;;;;;;20.50;12.15;;;10.30;99.90;;;;;;5031055;28;20099;-68
2023/01/07 02:37:11;;;;;;;22.27;13.50;;;10.30;99.90;;;;;;5032347;28;20037;-68
2023/01/07 02:40:03;;;;;;;19.13;12.18;;;10.30;99.90;;;;;;5013946;28;20053;-68
2023/01/07 02:42:45;;;;;;;21.83;13.13;;;10.30;99.90;;;;;;5032090;28;20117;-68
2023/01/07 02:45:26;;;;;;;20.60;12.13;;;10.30;99.90;;;;;;5030169;28;20389;-68
2023/01/07 02:47:55;;;;;;;20.33;12.82;;;10.30;99.90;;;;;;5032026;28;20103;-68
2023/01/07 02:50:21;;;;;;;20.88;13.10;;;10.30;99.90;;;;;;5031976;28;20037;-68
2023/01/07 02:52:46;;;;;;;20.55;12.30;;;10.30;99.90;;;;;;5031912;28;20037;-68
2023/01/07 02:55:15;;;;;;;20.58;12.25;;;10.30;99.90;;;;;;5029908;28;20045;-68
2023/01/07 02:57:46;;;;;;;22.17;11.93;;;10.30;99.90;;;;;;5031898;28;20041;-67
2023/01/07 03:00:44;;;;;;;18.40;12.52;;;10.30;99.90;;;;;;5031540;28;20037;-68
2023/01/07 03:03:35;;;;;;;23.23;13.63;;;10.30;99.90;;;;;;5011886;28;20045;-68
2023/01/07 03:06:29;;;;;;;19.95;12.20;;;10.30;99.90;;;;;;5029530;28;20536;-68
2023/01/07 03:09:12;;;;;;;18.27;11.80;;;10.30;99.90;;;;;;5031510;28;20060;-68
2023/01/07 03:11:48;;;;;;;19.42;12.70;;;10.30;99.90;;;;;;5031586;28;20050;-68
2023/01/07 03:14:19;;;;;;;20.35;12.65;;;10.30;99.90;;;;;;5030767;28;20041;-68
2023/01/07 03:16:53;;;;;;;17.77;11.57;;;10.30;99.90;;;;;;5031711;28;20175;-68
2023/01/07 03:19:24;;;;;;;22.65;12.35;;;10.30;99.90;;;;;;5031322;28;20509;-68
2023/01/07 03:21:53;;;;;;;20.23;12.63;;;10.30;99.90;;;;;;5030356;28;20496;-68
2023/01/07 03:24:21;;;;;;;18.88;12.60;;;10.30;99.90;;;;;;5030507;28;20053;-68
2023/01/07 03:26:49;;;;;;;21.75;12.38;;;10.30;99.90;;;;;;5029947;28;20052;-68
2023/01/07 03:29:17;;;;;;;20.08;12.73;;;10.30;99.90;;;;;;5031352;28;20064;-68
2023/01/07 03:31:50;;;;;;;18.20;11.52;;;10.30;99.90;;;;;;5029817;28;20131;-68
2023/01/07 03:34:19;;;;;;;17.33;12.20;;;10.30;99.90;;;;;;5030441;28;20041;-68
2023/01/07 03:36:51;;;;;;;20.25;12.73;;;10.30;99.90;;;;;;5031264;28;20155;-68
2023/01/07 03:39:19;;;;;;;18.50;12.82;;;10.30;99.90;;;;;;5030832;28;20616;-68
2023/01/07 03:44:33;;;;;;;20.95;12.30;;;10.30;99.90;;;;;;5030225;28;20045;-68
2023/01/07 03:46:59;;;;;;;19.23;12.35;;;10.30;99.90;;;;;;5031206;28;20042;-68
2023/01/07 03:49:24;;;;;;;18.10;11.93;;;10.30;99.90;;;;;;5031123;28;20442;-68
2023/01/07 03:51:51;;;;;;;21.45;11.93;;;10.20;99.90;;;;;;5031155;28;20127;-68
2023/01/07 03:54:17;;;;;;;19.00;11.63;;;10.30;99.90;;;;;;5030246;28;20073;-68
2023/01/07 03:56:42;;;;;;;17.75;11.90;;;10.30;99.90;;;;;;5030828;28;20080;-68
2023/01/07 03:59:08;;;;;;;21.55;11.27;;;10.30;99.90;;;;;;5030736;28;20041;-68
2023/01/07 04:01:33;;;;;;;21.77;11.30;;;10.30;99.90;;;;;;5030936;28;20057;-68
2023/01/07 04:03:59;;;;;;;18.95;11.02;;;10.20;99.90;;;;;;5030102;28;20037;-68
2023/01/07 04:06:24;;;;;;;16.85;11.25;;;10.30;99.90;;;;;;5029474;28;20043;-68
2023/01/07 04:08:50;;;;;;;18.73;10.52;;;10.30;99.90;;;;;;5030685;28;20406;-68
2023/01/07 04:11:15;;;;;;;16.30;9.98;;;10.20;99.90;;;;;;5030594;28;20049;-68
2023/01/07 04:13:41;;;;;;;14.65;10.13;;;10.20;99.90;;;;;;5029990;28;20041;-68
2023/01/07 04:16:07;;;;;;;20.27;11.52;;;10.30;99.90;;;;;;5030630;28;20045;-68
2023/01/07 04:18:32;;;;;;;15.95;10.30;;;10.30;99.90;;;;;;5030955;28;20060;-68
2023/01/07 04:20:58;;;;;;;18.35;10.18;;;10.20;99.90;;;;;;5030702;28;20037;-68
2023/01/07 04:23:23;;;;;;;16.70;10.43;;;10.30;99.90;;;;;;5030516;28;20140;-68
2023/01/07 04:25:49;;;;;;;17.90;10.45;;;10.20;99.90;;;;;;5030149;28;20553;-68
2023/01/07 04:28:15;;;;;;;15.55;9.95;;;10.20;99.90;;;;;;5029412;28;20053;-68
2023/01/07 04:30:40;;;;;;;15.32;10.95;;;10.20;99.90;;;;;;5030819;28;20124;-68
2023/01/07 04:33:06;;;;;;;17.40;9.32;;;10.20;99.90;;;;;;5030550;28;20413;-68
2023/01/07 04:35:32;;;;;;;16.23;9.73;;;10.20;99.90;;;;;;5029943;28;20462;-68
2023/01/07 04:37:58;;;;;;;16.38;8.95;;;10.20;99.90;;;;;;5030475;28;20068;-68
2023/01/07 04:40:24;;;;;;;16.50;9.07;;;10.20;99.90;;;;;;5030346;28;20405;-68
2023/01/07 04:42:50;;;;;;;17.60;9.65;;;10.20;99.90;;;;;;5030284;28;20037;-68
2023/01/07 04:45:15;;;;;;;14.55;9.02;;;10.20;99.90;;;;;;5028377;28;20072;-68
2023/01/07 04:47:41;;;;;;;11.93;8.30;;;10.20;99.90;;;;;;5030687;28;20033;-68
2023/01/07 04:50:07;;;;;;;12.13;8.18;;;10.20;99.90;;;;;;5030467;28;20042;-68
2023/01/07 04:52:33;;;;;;;13.07;8.70;;;10.20;99.90;;;;;;5030209;28;20567;-68
2023/01/07 04:54:58;;;;;;;13.38;8.40;;;10.20;99.90;;;;;;5029917;28;20037;-68
2023/01/07 04:57:24;;;;;;;15.68;9.25;;;10.20;99.90;;;;;;5033966;28;20405;-68
2023/01/07 04:59:49;;;;;;;11.32;7.95;;;10.20;99.90;;;;;;5032405;28;20045;-68
2023/01/07 05:02:15;;;;;;;15.32;7.90;;;10.20;99.90;;;;;;5033849;28;20049;-67
2023/01/07 05:04:40;;;;;;;12.07;8.38;;;10.20;99.90;;;;;;5033137;28;20041;-68
2023/01/07 05:07:06;;;;;;;11.00;8.15;;;10.20;99.90;;;;;;5033871;28;20029;-68
2023/01/07 05:09:32;;;;;;;11.98;7.93;;;10.20;99.90;;;;;;5032553;28;20061;-68
2023/01/07 05:11:58;;;;;;;11.73;7.68;;;10.20;99.90;;;;;;5033574;28;20665;-68
2023/01/07 05:14:23;;;;;;;12.27;8.63;;;10.10;99.90;;;;;;5032981;28;20132;-68
2023/01/07 05:16:49;;;;;;;13.50;8.20;;;10.20;99.90;;;;;;5032260;28;20060;-68
2023/01/07 05:19:15;;;;;;;12.82;7.93;;;10.20;99.90;;;;;;5033748;28;20076;-68
2023/01/07 05:21:40;;;;;;;11.68;7.68;;;10.20;99.90;;;;;;5033501;28;20459;-68
2023/01/07 05:24:06;;;;;;;11.55;7.22;;;10.10;99.90;;;;;;5032689;28;20033;-68
2023/01/07 05:26:31;;;;;;;11.13;7.55;;;10.10;99.90;;;;;;5033274;28;20048;-68
2023/01/07 05:28:57;;;;;;;10.77;7.18;;;10.10;99.90;;;;;;5033321;28;20084;-68
2023/01/07 05:31:22;;;;;;;12.32;7.68;;;10.10;99.90;;;;;;5033478;28;20041;-68
2023/01/07 05:33:48;;;;;;;10.18;7.07;;;10.10;99.90;;;;;;5032678;28;20087;-68
2023/01/07 05:36:14;;;;;;;10.93;7.03;;;10.10;99.90;;;;;;5033273;28;20053;-68
2023/01/07 05:38:39;;;;;;;11.63;6.82;;;10.10;99.90;;;;;;5033129;28;20124;-68
2023/01/07 05:41:05;;;;;;;9.02;6.80;;;10.10;99.90;;;;;;5033030;28;20042;-68
2023/01/07 05:43:30;;;;;;;12.88;7.40;;;10.10;99.90;;;;;;5032892;28;20495;-68
2023/01/07 05:45:57;;;;;;;12.05;7.18;;;10.10;99.90;;;;;;5047971;28;20120;-68
2023/01/07 05:48:23;;;;;;;11.02;6.43;;;10.20;99.90;;;;;;5033191;28;20048;-68
2023/01/07 05:50:49;;;;;;;13.82;7.00;;;10.10;99.90;;;;;;5033043;28;20041;-68
2023/01/07 05:53:15;;;;;;;11.77;7.03;;;10.10;99.90;;;;;;5033100;28;20033;-68
2023/01/07 05:55:40;;;;;;;9.55;6.45;;;10.10;99.90;;;;;;5032327;28;20046;-68
2023/01/07 05:58:07;;;;;;;12.10;7.07;;;10.20;99.90;;;;;;5033079;28;20037;-67
2023/01/07 06:00:33;;;;;;;11.73;6.95;;;10.10;99.90;;;;;;5032829;28;20041;-68
2023/01/07 06:02:59;;;;;;;10.75;7.68;;;10.10;99.90;;;;;;5032994;28;20041;-68
2023/01/07 06:05:24;;;;;;;9.85;6.40;;;10.10;99.90;;;;;;5031901;28;20440;-68
2023/01/07 06:07:50;;;;;;;9.65;6.00;;;10.20;99.90;;;;;;5031498;28;20510;-68
2023/01/07 06:10:16;;;;;;;9.52;6.18;;;10.10;99.90;;;;;;5032678;28;20041;-68
2023/01/07 06:12:41;;;;;;;12.07;6.30;;;10.10;99.90;;;;;;5032747;28;20699;-68
2023/01/07 06:15:07;;;;;;;7.18;6.20;;;10.20;99.90;;;;;;5031664;28;20052;-68
2023/01/07 06:17:33;;;;;;;9.60;5.93;;;10.20;99.90;;;;;;5032808;28;20086;-68
2023/01/07 06:19:59;;;;;;;9.55;5.63;;;10.10;99.90;;;;;;5032268;28;20091;-68
2023/01/07 06:22:25;;;;;;;12.95;6.07;;;10.10;99.90;;;;;;5032357;28;20053;-68
2023/01/07 06:24:50;;;;;;;12.60;6.18;;;10.10;99.90;;;;;;5031559;28;20038;-68
2023/01/07 06:27:16;;;;;;;10.88;5.97;;;10.10;99.90;;;;;;5032528;28;20067;-67
2023/01/07 06:29:42;;;;;;;12.68;5.97;;;10.10;99.90;;;;;;5032610;28;20081;-67
2023/01/07 06:32:08;;;;;;;8.38;6.25;;;10.00;99.90;;;;;;5032372;28;20052;-67
2023/01/07 06:34:33;;;;;;;14.95;5.88;;;10.00;99.90;;;;;;5030393;28;20550;-67
2023/01/07 06:36:59;;;;;;;7.70;5.65;;;10.10;99.90;;;;;;5030781;28;20139;-67
2023/01/07 06:39:25;;;;;;;8.35;5.40;;;10.10;99.90;;;;;;5032242;28;20037;-68
2023/01/07 06:41:50;;;;;;;7.68;5.43;;;10.10;99.90;;;;;;5032067;28;20525;-67
2023/01/07 06:44:16;;;;;;;8.90;5.32;;;10.10;99.90;;;;;;5031329;28;20045;-67
2023/01/07 06:46:41;;;;;;;7.40;5.40;;;10.10;99.90;;;;;;5032215;28;20072;-67
2023/01/07 06:49:07;;;;;;;9.90;6.60;;;10.10;99.90;;;;;;5031854;28;20060;-67
2023/01/07 06:51:32;;;;;;;10.60;5.32;;;10.00;99.90;;;;;;5030657;28;20064;-68
2023/01/07 06:53:58;;;;;;;6.80;5.55;;;10.10;99.90;;;;;;5029583;28;20061;-67
2023/01/07 06:56:23;;;;;;;8.38;5.35;;;10.10;99.90;;;;;;5031985;28;20041;-67
2023/01/07 06:58:49;;;;;;;9.20;4.97;;;10.10;99.90;;;;;;5031625;28;20473;-67
2023/01/07 07:01:15;;;;;;;6.63;5.00;;;10.10;99.90;;;;;;5031754;28;20047;-68
2023/01/07 07:03:40;;;;;;;7.97;4.68;;;10.10;99.90;;;;;;5031054;28;20041;-68
2023/01/07 07:06:06;;;;;;;6.32;4.88;;;10.10;99.90;;;;;;5030929;28;20042;-67
2023/01/07 07:08:32;;;;;;;7.00;4.80;;;10.00;99.90;;;;;;5031409;28;20049;-68
2023/01/07 07:10:58;;;;;;;9.40;5.10;;;10.10;99.90;;;;;;5031647;28;20064;-67
2023/01/07 07:13:23;;;;;;;5.50;4.05;;;10.10;99.90;;;;;;5031528;28;20037;-67
2023/01/07 07:15:49;;;;;;;6.38;4.30;;;10.00;99.90;;;;;;5030670;28;20529;-67
2023/01/07 07:18:16;;;;;;;7.63;4.97;;;10.00;99.90;;;;;;5031046;28;20433;-68
2023/01/07 07:20:41;;;;;;;8.90;4.90;;;10.00;99.90;;;;;;5031408;28;20113;-67
2023/01/07 07:23:07;;;;;;;5.35;4.75;;;10.00;99.90;;;;;;5031180;28;20550;-67
2023/01/07 07:25:32;;;;;;;7.15;4.55;;;9.90;99.90;;;;;;5030602;28;20397;-67
2023/01/07 07:27:58;;;;;;;7.05;4.93;;;10.00;99.90;;;;;;5031374;28;20080;-67
2023/01/07 07:30:23;;;;;;;10.23;5.78;;;9.90;99.90;;;;;;5031376;28;20053;-68
2023/01/07 07:32:49;;;;;;;9.32;5.00;;;9.90;99.90;;;;;;5031101;28;20077;-67
2023/01/07 07:35:15;;;;;;;5.75;4.55;;;9.90;99.90;;;;;;5030455;28;20044;-68
2023/01/07 07:37:40;;;;;;;8.68;5.20;;;9.90;99.90;;;;;;5030983;28;20037;-67
2023/01/07 07:40:07;;;;;;;8.45;5.45;;;9.90;99.90;;;;;;5030157;28;20048;-67
2023/01/07 07:42:34;;;;;;;10.93;6.75;;;9.90;99.90;;;;;;5020032;28;20564;-68
2023/01/07 07:44:59;;;;;;;13.75;7.32;;;9.80;99.90;;;;;;5023046;28;20045;-67
2023/01/07 07:47:25;;;;;;;14.75;8.30;;;9.80;99.90;;;;;;5029282;28;20128;-68
2023/01/07 07:49:50;;;;;;;13.60;7.50;;;9.80;99.90;;;;;;5029176;28;20091;-67
2023/01/07 07:52:17;;;;;;;13.65;7.88;;;9.80;99.90;;;;;;5027107;28;20501;-67
2023/01/07 07:54:42;;;;;;;8.80;5.70;;;9.70;99.90;;;;;;5028508;28;20096;-68
2023/01/07 07:57:08;;;;;;;8.52;5.15;;;9.70;99.90;;;;;;5031018;28;20073;-67
2023/01/07 07:59:33;;;;;;;6.07;4.65;;;9.70;99.90;;;;;;5030666;28;20037;-67
2023/01/07 08:01:59;;;;;;;6.20;4.40;;;9.70;99.90;;;;;;5030906;28;20041;-67
2023/01/07 08:04:27;;;;;;;8.18;4.72;;;9.70;99.90;;;;;;5029877;28;20494;-68
2023/01/07 08:06:53;;;;;;;8.77;4.53;;;9.70;99.90;;;;;;5030644;28;20041;-67
2023/01/07 08:09:19;;;;;;;8.20;5.18;;;9.60;99.90;;;;;;5030918;28;20052;-67
2023/01/07 08:11:44;;;;;;;5.55;4.55;;;9.70;99.90;;;;;;5030880;28;20397;-67
2023/01/07 08:14:10;;;;;;;6.93;5.15;;;9.60;99.90;;;;;;5029913;28;20040;-67
2023/01/07 08:16:35;;;;;;;6.70;4.38;;;9.60;99.90;;;;;;5031001;28;20037;-67
2023/01/07 08:19:01;;;;;;;7.28;4.72;;;9.60;99.90;;;;;;5030577;28;20042;-67
2023/01/07 08:21:26;;;;;;;9.13;4.65;;;9.60;99.90;;;;;;5030726;28;20049;-67
2023/01/07 08:23:52;;;;;;;6.55;4.82;;;9.60;99.90;;;;;;5030057;28;20041;-68
2023/01/07 08:26:18;;;;;;;8.50;5.78;;;9.50;99.90;;;;;;5030708;28;20533;-68
2023/01/07 08:28:43;;;;;;;8.60;4.68;;;9.50;99.90;;;;;;5030707;28;20045;-67
2023/01/07 08:31:09;;;;;;;6.15;4.80;;;9.60;99.90;;;;;;5031311;28;20037;-68
2023/01/07 08:33:37;;;;;;;6.97;4.53;;;9.50;99.90;;;;;;5034546;28;20136;-67
2023/01/07 08:36:07;;;;;;;6.47;4.10;;;9.50;99.90;;;;;;5033182;28;20049;-67
2023/01/07 08:38:33;;;;;;;9.45;5.07;;;9.50;99.90;;;;;;5034312;28;20057;-67
2023/01/07 08:40:59;;;;;;;8.20;4.18;;;9.50;99.90;;;;;;5034350;28;20029;-67
2023/01/07 08:43:25;;;;;;;7.45;4.00;;;9.50;99.90;;;;;;5048770;28;20045;-69
2023/01/07 08:45:52;;;;;;;5.97;4.43;;;9.50;99.90;;;;;;5058038;28;20404;-68
2023/01/07 08:48:18;;;;;;;8.52;5.18;;;9.50;99.90;;;;;;5059104;28;20041;-67
2023/01/07 08:50:49;;;;;;;5.68;4.82;;;9.60;99.90;;;;;;5052505;28;20044;-67
2023/01/07 08:53:14;;;;;;;6.43;4.53;;;9.60;99.90;;;;;;5054070;28;20040;-66
2023/01/07 08:55:40;;;;;;;6.63;4.47;;;9.60;99.90;;;;;;5051830;28;20600;-66
2023/01/07 08:58:06;;;;;;;5.72;4.10;;;9.70;99.90;;;;;;5053646;28;20482;-67
2023/01/07 09:00:31;;;;;;;4.47;4.07;;;9.70;99.90;;;;;;5053960;28;20049;-66
2023/01/07 09:02:57;;;;;;;7.00;4.35;;;9.70;99.90;;;;;;5053562;28;20048;-67
2023/01/07 09:05:23;;;;;;;4.80;3.75;;;9.70;99.90;;;;;;5052884;28;20463;-66
2023/01/07 09:07:52;;;;;;;6.57;3.53;;;9.80;99.90;;;;;;5053776;28;20116;-66
2023/01/07 09:10:18;;;;;;;4.07;3.70;;;9.80;99.90;;;;;;5053616;28;20501;-66
2023/01/07 09:12:45;;;;;;;4.65;4.03;;;9.70;99.90;;;;;;5053679;28;20044;-66
2023/01/07 09:15:11;;;;;;;7.30;3.97;;;9.80;99.90;;;;;;5052764;28;20128;-66
2023/01/07 09:17:37;;;;;;;4.93;3.88;;;9.80;99.90;;;;;;5053491;28;20116;-66
2023/01/07 09:20:04;;;;;;;4.45;3.60;;;9.80;99.90;;;;;;5053290;28;20063;-66
2023/01/07 09:22:31;;;;;;;4.20;3.00;;;9.80;99.90;;;;;;5053283;28;20490;-66
2023/01/07 09:24:58;;;;;;;5.60;3.63;;;9.80;99.90;;;;;;5051211;28;20077;-66
2023/01/07 09:27:25;;;;;;;6.60;4.13;;;9.80;99.90;;;;;;5053356;28;20048;-66
2023/01/07 09:29:52;;;;;;;6.20;3.58;;;9.80;99.90;;;;;;5053270;28;20094;-66
2023/01/07 09:32:18;;;;;;;7.05;3.67;;;9.80;99.90;;;;;;5052935;28;20494;-66
2023/01/07 09:34:44;;;;;;;3.45;3.15;;;9.90;99.90;;;;;;5052541;28;20098;-67
2023/01/07 09:37:09;;;;;;;3.92;2.90;;;9.90;99.90;;;;;;5053024;28;20033;-66
2023/01/07 09:39:35;;;;;;;7.20;3.35;;;9.90;99.90;;;;;;5051732;28;20033;-66
2023/01/07 09:42:00;;;;;;;3.10;2.80;;;10.00;99.90;;;;;;5051303;28;20498;-66
2023/01/07 09:45:03;;;;;;;4.15;3.75;;;10.00;99.90;;;;;;5052353;28;20486;-67
2023/01/07 09:47:32;;;;;;;3.90;2.92;;;10.00;99.90;;;;;;5052057;28;20371;-67
2023/01/07 09:50:13;;;;;;;3.55;2.65;;;10.10;99.90;;;;;;5053062;28;20085;-66
2023/01/07 09:52:43;;;;;;;4.13;3.17;;;10.10;99.90;;;;;;5053157;28;20120;-66
2023/01/07 09:55:32;;;;;;;6.43;3.25;;;10.10;99.90;;;;;;5052390;28;20041;-67
2023/01/07 09:57:58;;;;;;;3.95;2.80;;;10.10;99.90;;;;;;5051386;28;20092;-66
2023/01/07 10:00:24;;;;;;;4.35;2.55;;;10.20;99.90;;;;;;5052597;28;20120;-67
2023/01/07 10:03:09;;;;;;;3.20;2.90;;;10.20;99.90;;;;;;5052731;28;20398;-67
2023/01/07 10:05:41;;;;;;;4.47;3.08;;;10.30;99.90;;;;;;5051962;28;20048;-67
2023/01/07 10:08:36;;;;;;;3.25;2.95;;;10.30;99.90;;;;;;5052764;28;20039;-66
2023/01/07 10:11:13;;;;;;;3.80;2.78;;;10.30;99.90;;;;;;5032685;28;20551;-67
2023/01/07 10:14:06;;;;;;;2.85;2.53;;;10.30;99.90;;;;;;5031291;28;20112;-66
2023/01/07 10:16:42;;;;;;;;;;;10.40;99.90;;;;;;5033186;28;20142;-66
2023/01/07 10:19:23;;;;;;;5.78;2.78;;;10.40;99.90;;;;;;5032708;28;19921;-67
2023/01/07 10:22:17;;;;;;;4.57;2.70;;;10.40;99.90;;;;;;5032312;28;20120;-67
2023/01/07 10:24:47;;;;;;;3.10;2.60;;;10.40;99.90;;;;;;5031692;28;20124;-67
2023/01/07 10:27:17;;;;;;;4.65;2.58;;;10.40;99.90;;;;;;5032387;28;20056;-66
2023/01/07 10:29:47;;;;;;;2.70;2.33;;;10.40;99.90;;;;;;5032100;28;20125;-67
2023/01/07 10:32:18;;;;;;;2.50;2.30;;;10.40;99.90;;;;;;5032101;28;20041;-67
2023/01/07 10:34:47;;;;;;;3.60;2.50;;;10.50;99.90;;;;;;5031231;28;20092;-67
2023/01/07 10:37:36;;;;;;;3.30;2.40;;;10.50;99.90;;;;;;5032275;28;20048;-67
2023/01/07 10:40:11;;;;;;;2.55;2.35;;;10.50;99.90;;;;;;5031731;28;20099;-67
2023/01/07 10:42:49;;;;;;;4.07;2.58;;;10.50;99.90;;;;;;5031665;28;20045;-67
2023/01/07 10:45:37;;;;;;;4.32;2.67;;;10.50;99.90;;;;;;5029977;28;20402;-66
2023/01/07 10:48:16;;;;;;;3.72;2.20;;;10.50;99.90;;;;;;5032200;28;20124;-67
2023/01/07 10:50:56;;;;;;;3.53;2.22;;;10.50;99.90;;;;;;5031875;28;20041;-67
2023/01/07 10:53:21;;;;;;;4.13;2.67;;;10.50;99.90;;;;;;5031073;28;20081;-66
2023/01/07 10:56:11;;;;;;;6.38;3.25;;;10.60;99.90;;;;;;5031083;28;20065;-67
2023/01/07 10:58:40;;;;;;;9.15;3.50;;;10.50;99.90;;;;;;5031717;28;20448;-67
2023/01/07 11:01:07;;;;;;;10.57;4.07;;;10.60;99.90;;;;;;5031703;28;20037;-67
2023/01/07 11:03:33;;;;;;;3.83;3.00;;;10.60;99.90;;;;;;5031516;28;20096;-67
2023/01/07 11:06:10;;;;;;;3.60;2.85;;;10.60;99.90;;;;;;5030909;28;20033;-67
2023/01/07 11:08:38;;;;;;;3.70;2.45;;;10.60;99.90;;;;;;5030476;28;20477;-67
2023/01/07 11:11:12;;;;;;;2.53;2.33;;;10.60;99.90;;;;;;5046900;28;20056;-67
2023/01/07 11:13:41;;;;;;;4.03;2.63;;;10.60;99.90;;;;;;5029887;28;20052;-67
2023/01/07 11:16:15;;;;;;;5.72;2.60;;;10.60;99.90;;;;;;5030983;28;20038;-67
2023/01/07 11:18:57;;;;;;;4.30;2.58;;;10.60;99.90;;;;;;5031301;28;20064;-67
2023/01/07 11:21:42;;;;;;;2.50;2.17;;;10.60;99.90;;;;;;5031277;28;20051;-66
2023/01/07 11:24:28;;;;;;;3.17;2.00;;;10.60;99.90;;;;;;5030519;28;20045;-67
2023/01/07 11:27:00;;;;;;;4.47;2.40;;;10.60;99.90;;;;;;5031109;28;20048;-67
2023/01/07 11:29:33;;;;;;;2.60;1.85;;;10.60;99.90;;;;;;5031368;28;20048;-66
2023/01/07 11:32:04;;;;;;;2.25;2.05;;;10.60;99.90;;;;;;5031096;28;20426;-70
2023/01/07 11:34:34;;;;;;;2.58;2.15;;;10.70;99.90;;;;;;5030243;28;20406;-68
2023/01/07 11:37:01;;;;;;;3.47;2.35;;;10.70;99.90;;;;;;5029599;28;20046;-69
2023/01/07 11:39:33;;;;;;;3.38;2.50;;;10.70;99.90;;;;;;5031078;28;20080;-69
2023/01/07 11:42:37;;;;;;;4.03;2.47;;;10.80;99.90;;;;;;5031106;28;20046;-66
2023/01/07 11:44:46;;;;;;;2.35;1.80;;;10.80;99.90;;;;;;5030063;28;20103;-66
2023/01/07 11:47:16;;;;;;;2.58;2.38;;;10.90;99.90;;;;;;5031119;28;20045;-66
2023/01/07 11:49:44;;;;;;;3.83;2.42;;;10.80;99.90;;;;;;5031185;28;20057;-66
2023/01/07 11:52:20;;;;;;;2.42;2.13;;;10.80;99.90;;;;;;5031047;28;20037;-66
2023/01/07 11:54:50;;;;;;;3.78;2.33;;;10.90;99.90;;;;;;5027785;28;20576;-66
2023/01/07 11:57:23;;;;;;;2.58;2.25;;;10.90;99.90;;;;;;5031170;28;20462;-66
2023/01/07 12:00:16;;;;;;;2.65;2.05;;;10.90;99.90;;;;;;5013377;28;20121;-66
2023/01/07 12:02:41;;;;;;;;;;;10.90;99.90;;;;;;5031503;28;20041;-66
2023/01/07 12:05:25;;;;;;;3.92;2.28;;;10.90;99.90;;;;;;5032349;28;20024;-66
2023/01/07 12:07:51;;;;;;;4.22;2.15;;;10.90;99.90;;;;;;5034988;28;20071;-66
2023/01/07 12:10:33;;;;;;;2.28;2.03;;;11.00;99.90;;;;;;5033491;28;20041;-66
2023/01/07 12:13:02;;;;;;;4.70;2.20;;;11.00;99.90;;;;;;5034697;28;20042;-66
2023/01/07 12:15:31;;;;;;;3.15;1.90;;;11.00;99.90;;;;;;5033826;28;20045;-66
2023/01/07 12:18:23;;;;;;;2.20;1.95;;;11.00;99.90;;;;;;5034681;28;20037;-66
2023/01/07 12:21:19;;;;;;;2.83;2.15;;;11.00;99.90;;;;;;5034802;28;20044;-66
2023/01/07 12:24:08;;;;;;;2.47;1.85;;;11.10;99.90;;;;;;5047863;28;20541;-66
2023/01/07 12:26:51;;;;;;;3.03;1.90;;;11.10;99.90;;;;;;5054597;28;20084;-66
2023/01/07 12:29:38;;;;;;;1.88;1.77;;;11.10;99.90;;;;;;5054547;28;20041;-66
2023/01/07 12:32:12;;;;;;;2.20;1.85;;;11.10;99.90;;;;;;5054605;28;20091;-66
2023/01/07 12:35:00;;;;;;;1.80;1.70;;;11.10;99.90;;;;;;5053675;28;20094;-69
2023/01/07 12:37:37;;;;;;;1.95;1.75;;;11.10;99.90;;;;;;5052825;28;20056;-69
2023/01/07 12:40:21;;;;;;;2.38;2.17;;;11.20;99.90;;;;;;5052864;28;20099;-69
2023/01/07 12:42:53;;;;;;;1.92;1.73;;;11.10;99.90;;;;;;5054041;28;20041;-70
2023/01/07 12:45:27;;;;;;;3.20;1.50;;;11.10;99.90;;;;;;5053667;28;20037;-69
2023/01/07 12:48:01;;;;;;;2.67;1.88;;;11.20;99.90;;;;;;5053075;28;20578;-69
2023/01/07 12:50:49;;;;;;;2.80;2.17;;;11.10;99.90;;;;;;5052759;28;20091;-69
2023/01/07 12:53:45;;;;;;;1.80;1.70;;;11.20;99.90;;;;;;5053950;28;20052;-69
2023/01/07 12:56:20;;;;;;;11.60;2.10;;;11.20;99.90;;;;;;5053926;28;20551;-69
2023/01/07 12:58:58;;;;;;;1.95;1.80;;;11.20;99.90;;;;;;5052306;28;20115;-69
2023/01/07 13:01:35;;;;;;;1.88;1.38;;;11.20;99.90;;;;;;5052645;28;20128;-70
2023/01/07 13:04:41;;;;;;;2.15;1.90;;;11.20;99.90;;;;;;5052924;28;20052;-70